Time;durP1;ratioP1;P1;durP2;ratioP2;P2;SDS_P1;SDS_P2;PMS_P1;PMS_P2;Temp;Humidity;BMP_temperature;BMP_pressure;BME280_temperature;BME280_humidity;BME280_pressure;Samples;Min_cycle;Max_cycle;Signal;HPM_P1;HPM_P2
2021/03/28 00:01:48;;;;;;;7.45;2.83;;;9.10;62.10;;;;;;4910173;29;20068;-81
2021/03/28 00:04:17;;;;;;;7.97;2.97;;;9.00;62.10;;;;;;4913146;29;20201;-80
2021/03/28 00:06:59;;;;;;;8.57;3.25;;;9.10;62.20;;;;;;4909095;29;20057;-80
2021/03/28 00:09:28;;;;;;;8.57;3.13;;;9.00;62.00;;;;;;4908895;29;20088;-83
2021/03/28 00:12:01;;;;;;;7.32;2.83;;;9.00;62.20;;;;;;4913873;29;20059;-82
2021/03/28 00:14:44;;;;;;;6.53;2.70;;;9.00;62.30;;;;;;4901331;29;20088;-81
2021/03/28 00:17:27;;;;;;;6.93;2.70;;;9.00;62.40;;;;;;4914162;29;20059;-82
2021/03/28 00:19:59;;;;;;;7.70;2.90;;;9.00;62.40;;;;;;4914932;29;20139;-81
2021/03/28 00:22:32;;;;;;;6.60;3.10;;;8.90;62.60;;;;;;4901392;29;20177;-82
2021/03/28 00:25:09;;;;;;;6.32;2.80;;;8.90;62.80;;;;;;4906443;29;20063;-82
2021/03/28 00:27:45;;;;;;;5.97;2.70;;;8.80;62.60;;;;;;4911067;29;20087;-82
2021/03/28 00:30:37;;;;;;;9.20;2.72;;;8.80;62.90;;;;;;4898661;29;20080;-81
2021/03/28 00:33:21;;;;;;;5.70;2.33;;;8.80;62.90;;;;;;4907261;29;20131;-83
2021/03/28 00:35:55;;;;;;;5.85;2.55;;;8.80;62.90;;;;;;4915149;29;20112;-82
2021/03/28 00:38:26;;;;;;;5.17;2.57;;;8.70;62.90;;;;;;4900849;29;20079;-82
2021/03/28 00:41:12;;;;;;;7.32;2.70;;;8.70;63.00;;;;;;4907976;29;20135;-82
2021/03/28 00:43:47;;;;;;;7.22;2.85;;;8.70;63.00;;;;;;4910926;29;20142;-81
2021/03/28 00:46:39;;;;;;;7.95;2.50;;;8.70;62.90;;;;;;4915762;29;20068;-81
2021/03/28 00:49:09;;;;;;;6.55;2.65;;;8.60;63.30;;;;;;4910417;29;20134;-82
2021/03/28 00:51:45;;;;;;;5.97;2.47;;;8.60;63.30;;;;;;4907369;29;20550;-81
2021/03/28 00:54:16;;;;;;;6.03;2.28;;;8.60;63.40;;;;;;4902618;29;20131;-84
2021/03/28 00:56:47;;;;;;;8.10;2.50;;;8.60;63.50;;;;;;4913117;29;20131;-84
2021/03/28 00:59:19;;;;;;;7.20;2.50;;;8.50;63.60;;;;;;4908672;29;20475;-83
2021/03/28 01:02:19;;;;;;;5.30;2.40;;;8.50;63.70;;;;;;4914056;29;20119;-84
2021/03/28 01:05:17;;;;;;;7.35;2.78;;;8.50;64.30;;;;;;4908691;29;20553;-82
2021/03/28 01:07:55;;;;;;;6.82;2.70;;;8.50;64.20;;;;;;4902195;29;20147;-82
2021/03/28 01:10:51;;;;;;;5.45;2.88;;;8.40;64.30;;;;;;4908448;29;20088;-82
2021/03/28 01:14:13;;;;;;;6.95;2.58;;;8.40;64.60;;;;;;4911827;29;20083;-82
2021/03/28 01:17:32;;;;;;;5.65;2.50;;;8.30;64.90;;;;;;4884377;29;20117;-82
2021/03/28 01:20:41;;;;;;;6.45;2.47;;;8.30;65.00;;;;;;4909772;29;20084;-82
2021/03/28 01:23:18;;;;;;;5.72;2.25;;;8.30;65.20;;;;;;4907881;29;20048;-83
2021/03/28 01:26:11;;;;;;;7.22;2.38;;;8.10;65.40;;;;;;4901825;29;20152;-83
2021/03/28 01:28:52;;;;;;;6.82;2.30;;;8.10;65.80;;;;;;4903223;29;20152;-83
2021/03/28 01:31:37;;;;;;;6.43;2.42;;;8.20;66.10;;;;;;4905026;29;20087;-83
2021/03/28 01:34:20;;;;;;;;;;;8.10;66.30;;;;;;4917362;29;20565;-83
2021/03/28 01:37:00;;;;;;;6.53;2.38;;;8.00;66.40;;;;;;4917852;29;20021;-83
2021/03/28 01:39:38;;;;;;;6.80;2.63;;;8.00;66.60;;;;;;4907683;29;20076;-82
2021/03/28 01:42:18;;;;;;;5.90;2.75;;;8.00;66.80;;;;;;4916177;29;20380;-83
2021/03/28 01:44:52;;;;;;;5.85;2.30;;;7.90;66.90;;;;;;4908044;29;20512;-83
2021/03/28 01:47:28;;;;;;;6.13;2.53;;;7.90;67.20;;;;;;4908866;29;20087;-82
2021/03/28 01:50:32;;;;;;;6.03;2.50;;;7.90;67.50;;;;;;4916375;29;20079;-82
2021/03/28 01:53:14;;;;;;;6.65;2.30;;;7.90;67.60;;;;;;4910494;29;20103;-81
2021/03/28 01:55:48;;;;;;;6.50;2.20;;;7.90;67.70;;;;;;4918852;29;20075;-81
2021/03/28 01:58:29;;;;;;;6.80;2.28;;;7.90;67.90;;;;;;4900290;29;20144;-82
2021/03/28 02:01:12;;;;;;;6.47;2.13;;;7.90;68.00;;;;;;4905818;29;20090;-82
2021/03/28 02:03:54;;;;;;;7.03;2.50;;;7.80;68.20;;;;;;4905449;29;20064;-80
2021/03/28 02:06:44;;;;;;;8.73;2.50;;;8.00;68.50;;;;;;4900820;29;20063;-80
2021/03/28 02:09:27;;;;;;;5.38;2.25;;;7.90;68.50;;;;;;4914092;29;20525;-81
2021/03/28 02:12:08;;;;;;;6.28;2.00;;;7.70;68.50;;;;;;4903320;29;20147;-82
2021/03/28 02:14:54;;;;;;;6.60;2.70;;;7.80;68.60;;;;;;4905530;29;20051;-82
2021/03/28 02:17:47;;;;;;;6.90;2.60;;;7.70;68.80;;;;;;4907651;29;20167;-81
2021/03/28 02:20:29;;;;;;;7.22;2.35;;;7.70;69.30;;;;;;4915765;29;20076;-80
2021/03/28 02:23:08;;;;;;;6.47;2.55;;;7.60;69.70;;;;;;4901461;29;20045;-81
2021/03/28 02:25:45;;;;;;;6.90;2.67;;;7.70;69.80;;;;;;4900342;29;20550;-81
2021/03/28 02:28:30;;;;;;;5.38;2.22;;;7.60;70.10;;;;;;4915359;29;20478;-81
2021/03/28 02:31:02;;;;;;;4.65;2.15;;;7.60;70.60;;;;;;4908576;29;20080;-81
2021/03/28 02:33:44;;;;;;;6.70;2.42;;;7.60;71.20;;;;;;4917534;29;20135;-81
2021/03/28 02:36:34;;;;;;;5.10;2.20;;;7.70;71.50;;;;;;4903334;29;20484;-82
2021/03/28 02:39:24;;;;;;;7.78;2.85;;;7.60;71.80;;;;;;4902192;29;20060;-82
2021/03/28 02:42:12;;;;;;;7.45;2.42;;;7.60;71.90;;;;;;4915178;29;20139;-81
2021/03/28 02:45:00;;;;;;;6.68;2.50;;;7.60;72.10;;;;;;4905835;29;20087;-81
2021/03/28 02:48:10;;;;;;;6.28;2.42;;;7.60;72.60;;;;;;4906296;29;20080;-80
2021/03/28 02:51:20;;;;;;;6.15;2.75;;;7.50;72.60;;;;;;4904685;29;20060;-82
2021/03/28 02:54:18;;;;;;;5.90;2.10;;;7.50;73.00;;;;;;4902644;29;20139;-81
2021/03/28 02:57:00;;;;;;;8.73;2.60;;;7.50;73.30;;;;;;4906283;29;20471;-79
2021/03/28 02:59:51;;;;;;;6.30;2.40;;;7.50;73.60;;;;;;4906070;29;20500;-81
2021/03/28 03:03:10;;;;;;;6.40;2.40;;;7.50;73.80;;;;;;4899417;29;20076;-79
2021/03/28 03:06:12;;;;;;;6.45;2.53;;;7.40;73.90;;;;;;4905538;29;20092;-80
2021/03/28 03:08:44;;;;;;;6.30;2.60;;;7.50;73.60;;;;;;4899982;29;20438;-80
2021/03/28 03:12:03;;;;;;;5.97;2.30;;;7.50;73.40;;;;;;4905677;29;20144;-80
2021/03/28 03:14:56;;;;;;;5.78;2.20;;;7.40;74.00;;;;;;4897616;29;20139;-80
2021/03/28 03:18:26;;;;;;;5.63;2.22;;;7.40;73.80;;;;;;4908689;29;20127;-80
2021/03/28 03:21:10;;;;;;;6.30;2.33;;;7.40;74.10;;;;;;4878580;29;20087;-81
2021/03/28 03:24:16;;;;;;;8.68;2.65;;;7.40;74.40;;;;;;4915198;29;20168;-81
2021/03/28 03:27:35;;;;;;;5.20;2.13;;;7.40;74.70;;;;;;4897671;29;20095;-81
2021/03/28 03:30:43;;;;;;;7.35;2.70;;;7.30;74.70;;;;;;4912097;29;20094;-79
2021/03/28 03:33:50;;;;;;;6.60;2.67;;;7.30;75.20;;;;;;4897624;29;20120;-79
2021/03/28 03:36:54;;;;;;;6.38;2.15;;;7.30;75.30;;;;;;4911466;29;20052;-80
2021/03/28 03:40:07;;;;;;;6.05;2.28;;;7.30;75.50;;;;;;4890711;29;20091;-82
2021/03/28 03:42:56;;;;;;;6.68;2.20;;;7.30;75.30;;;;;;4896304;29;20490;-79
2021/03/28 03:45:45;;;;;;;5.88;2.75;;;7.30;75.70;;;;;;4903440;29;20135;-80
2021/03/28 03:48:23;;;;;;;6.53;2.38;;;7.20;76.10;;;;;;4911049;29;20067;-80
2021/03/28 03:51:20;;;;;;;5.75;2.17;;;7.20;76.20;;;;;;4903152;29;20079;-80
2021/03/28 03:53:57;;;;;;;6.70;2.17;;;7.20;76.40;;;;;;4900880;29;20143;-79
2021/03/28 03:56:34;;;;;;;5.72;2.17;;;7.10;76.50;;;;;;4896347;29;20143;-80
2021/03/28 03:59:14;;;;;;;5.07;2.03;;;7.10;76.80;;;;;;4905135;29;20080;-81
2021/03/28 04:01:57;;;;;;;6.53;2.28;;;7.20;77.20;;;;;;4900148;29;20104;-80
2021/03/28 04:04:43;;;;;;;7.65;2.08;;;7.10;77.30;;;;;;4901588;29;20478;-80
2021/03/28 04:07:40;;;;;;;6.32;2.22;;;7.10;77.50;;;;;;4903278;29;20135;-79
2021/03/28 04:10:30;;;;;;;6.38;2.30;;;7.00;78.10;;;;;;4913776;29;20135;-80
2021/03/28 04:13:26;;;;;;;4.30;2.10;;;7.10;78.40;;;;;;4899718;29;20131;-80
2021/03/28 04:16:12;;;;;;;5.10;1.95;;;7.10;78.30;;;;;;4913621;29;20084;-81
2021/03/28 04:19:19;;;;;;;5.53;2.50;;;7.10;78.50;;;;;;4904251;29;20095;-79
2021/03/28 04:22:16;;;;;;;7.30;2.55;;;7.00;78.60;;;;;;4915334;29;20137;-79
2021/03/28 04:24:55;;;;;;;5.60;2.22;;;7.00;78.40;;;;;;4904744;29;20471;-80
2021/03/28 04:27:57;;;;;;;6.32;1.90;;;6.90;78.80;;;;;;4916916;29;20155;-80
2021/03/28 04:30:40;;;;;;;5.38;1.80;;;6.80;79.50;;;;;;4902155;29;20086;-84
2021/03/28 04:33:26;;;;;;;6.07;1.98;;;6.80;80.40;;;;;;4913350;29;20148;-84
2021/03/28 04:36:11;;;;;;;7.32;2.13;;;6.70;80.00;;;;;;4912903;29;20138;-86
2021/03/28 04:39:13;;;;;;;5.47;1.80;;;6.70;80.40;;;;;;4904535;29;20150;-84
2021/03/28 04:42:26;;;;;;;5.97;1.98;;;6.70;81.00;;;;;;4910450;29;20084;-85
2021/03/28 04:45:44;;;;;;;5.85;2.10;;;6.70;81.90;;;;;;4905969;29;20107;-85
2021/03/28 04:48:39;;;;;;;6.63;2.20;;;6.60;81.60;;;;;;4899716;29;20557;-85
2021/03/28 04:51:49;;;;;;;5.65;1.95;;;6.50;82.00;;;;;;4901743;29;20076;-86
2021/03/28 04:55:28;;;;;;;6.15;2.08;;;6.50;82.50;;;;;;4902928;29;20135;-86
2021/03/28 04:58:19;;;;;;;6.35;1.77;;;6.50;82.90;;;;;;4913808;29;20127;-85
2021/03/28 05:01:23;;;;;;;6.53;1.92;;;6.50;83.00;;;;;;4905274;29;20478;-85
2021/03/28 05:04:19;;;;;;;6.13;2.00;;;6.50;83.00;;;;;;4914537;29;20135;-84
2021/03/28 05:07:33;;;;;;;5.20;1.98;;;6.50;83.20;;;;;;4904961;29;20083;-85
2021/03/28 05:10:33;;;;;;;5.60;2.00;;;6.50;83.00;;;;;;4908191;29;20084;-85
2021/03/28 05:13:34;;;;;;;6.10;2.00;;;6.50;83.40;;;;;;4907149;29;20487;-86
2021/03/28 05:16:40;;;;;;;4.65;1.80;;;6.50;83.40;;;;;;4914548;29;20091;-85
2021/03/28 05:19:58;;;;;;;5.05;1.73;;;6.50;83.60;;;;;;4917014;29;20076;-84
2021/03/28 05:23:26;;;;;;;6.57;1.92;;;6.50;83.60;;;;;;4901517;29;20068;-84
2021/03/28 05:26:55;;;;;;;6.45;1.77;;;6.50;83.60;;;;;;4902090;29;20176;-84
2021/03/28 05:30:06;;;;;;;5.55;1.60;;;6.60;84.00;;;;;;4832501;29;20160;-84
2021/03/28 05:33:32;;;;;;;6.57;2.13;;;6.50;83.30;;;;;;4902985;29;20079;-86
2021/03/28 05:36:28;;;;;;;4.25;1.75;;;6.50;83.00;;;;;;4889138;29;20048;-85
2021/03/28 05:39:40;;;;;;;6.82;2.00;;;6.50;83.40;;;;;;4914827;29;20586;-84
2021/03/28 05:42:59;;;;;;;6.97;2.20;;;6.40;83.80;;;;;;4904752;29;20093;-84
2021/03/28 05:45:47;;;;;;;7.50;2.17;;;6.40;84.80;;;;;;4902227;29;20095;-82
2021/03/28 05:49:08;;;;;;;6.07;2.00;;;6.40;85.20;;;;;;4912884;29;20052;-83
2021/03/28 05:52:13;;;;;;;7.30;2.35;;;6.50;85.60;;;;;;4893979;29;20459;-79
2021/03/28 05:55:23;;;;;;;5.78;1.95;;;6.50;85.30;;;;;;4906872;29;20056;-80
2021/03/28 05:58:28;;;;;;;6.30;2.10;;;6.60;84.80;;;;;;4868944;29;20135;-81
2021/03/28 06:01:30;;;;;;;5.85;2.20;;;6.60;84.30;;;;;;4900454;29;20084;-80
2021/03/28 06:05:13;;;;;;;5.68;1.88;;;6.60;85.00;;;;;;4900358;29;20143;-83
2021/03/28 06:08:21;;;;;;;;;;;6.60;84.50;;;;;;4910970;29;20535;-82
2021/03/28 06:11:57;;;;;;;6.35;1.88;;;6.60;84.10;;;;;;4900616;29;20014;-83
2021/03/28 06:14:55;;;;;;;4.50;1.95;;;6.60;83.70;;;;;;4902394;29;20045;-84
2021/03/28 06:17:27;;;;;;;6.72;2.10;;;6.60;84.20;;;;;;4919246;29;20055;-84
2021/03/28 06:20:38;;;;;;;4.68;1.83;;;6.50;84.20;;;;;;4911662;29;20117;-85
2021/03/28 06:23:50;;;;;;;6.47;2.13;;;6.50;85.10;;;;;;4885421;29;20112;-90
2021/03/28 06:27:05;;;;;;;7.50;2.33;;;6.40;85.50;;;;;;4899649;29;20120;-84
2021/03/28 06:30:26;;;;;;;5.75;2.20;;;6.30;86.30;;;;;;4913028;29;20090;-84
2021/03/28 06:33:40;;;;;;;6.18;2.05;;;6.30;86.80;;;;;;4882274;29;20088;-83
2021/03/28 06:36:59;;;;;;;6.45;2.20;;;6.20;87.00;;;;;;4902355;29;20044;-83
2021/03/28 06:40:16;;;;;;;6.90;2.05;;;6.10;88.10;;;;;;4907761;29;20068;-81
2021/03/28 06:43:30;;;;;;;5.72;2.17;;;6.00;89.50;;;;;;4911943;29;20059;-80
2021/03/28 06:46:14;;;;;;;;;;;6.00;90.30;;;;;;4900112;29;20143;-81
2021/03/28 06:48:59;;;;;;;;;;;6.00;90.20;;;;;;4908952;29;19978;-82
2021/03/28 06:51:51;;;;;;;6.57;1.98;;;6.10;90.50;;;;;;4899373;29;19987;-80
2021/03/28 06:55:08;;;;;;;6.07;2.38;;;6.10;90.70;;;;;;4906835;29;20139;-80
2021/03/28 06:58:33;;;;;;;5.90;2.20;;;6.20;90.70;;;;;;4900493;29;20106;-81
2021/03/28 07:01:42;;;;;;;7.57;2.30;;;6.20;90.20;;;;;;4903659;29;20132;-80
2021/03/28 07:04:57;;;;;;;6.60;2.47;;;6.30;90.10;;;;;;4904267;29;20049;-80
2021/03/28 07:08:11;;;;;;;6.95;2.40;;;6.30;90.50;;;;;;4891410;29;20403;-81
2021/03/28 07:11:14;;;;;;;6.85;2.50;;;6.30;90.70;;;;;;4899015;29;20080;-80
2021/03/28 07:14:23;;;;;;;7.05;2.42;;;6.40;90.10;;;;;;4897629;29;20094;-79
2021/03/28 07:17:34;;;;;;;9.00;2.70;;;6.50;90.20;;;;;;4911032;29;20131;-80
2021/03/28 07:20:53;;;;;;;5.68;2.30;;;6.60;89.70;;;;;;4885205;29;20192;-81
2021/03/28 07:24:01;;;;;;;6.32;2.25;;;6.70;89.70;;;;;;4898793;29;20069;-78
2021/03/28 07:26:55;;;;;;;7.93;2.33;;;6.90;89.20;;;;;;4905404;29;20060;-76
2021/03/28 07:30:24;;;;;;;5.28;2.05;;;7.00;89.50;;;;;;4900000;29;20056;-77
2021/03/28 07:33:26;;;;;;;6.30;2.13;;;7.20;89.20;;;;;;4905609;29;20063;-76
2021/03/28 07:36:23;;;;;;;6.35;2.17;;;7.30;88.70;;;;;;4905981;29;20514;-78
2021/03/28 07:39:36;;;;;;;6.20;2.20;;;7.50;88.10;;;;;;4903224;29;20193;-78
2021/03/28 07:43:02;;;;;;;7.85;2.60;;;7.60;87.20;;;;;;4907469;29;20143;-77
2021/03/28 07:45:51;;;;;;;6.80;2.50;;;7.70;87.30;;;;;;4902847;29;20139;-78
2021/03/28 07:48:55;;;;;;;9.43;2.58;;;7.90;85.50;;;;;;4913212;29;20076;-79
2021/03/28 07:52:09;;;;;;;7.65;2.50;;;8.00;85.10;;;;;;4902568;29;20498;-90
2021/03/28 07:55:08;;;;;;;6.72;2.22;;;8.00;85.00;;;;;;4909007;29;20060;-90
2021/03/28 07:58:10;;;;;;;6.57;2.03;;;8.10;85.70;;;;;;4901977;29;20045;-89
2021/03/28 08:01:18;;;;;;;5.65;2.42;;;8.10;85.80;;;;;;4909412;29;20057;-90
2021/03/28 08:04:22;;;;;;;6.90;2.90;;;8.20;84.50;;;;;;4903321;29;20132;-86
2021/03/28 08:07:31;;;;;;;6.32;2.75;;;8.30;84.80;;;;;;4912403;29;20143;-81
2021/03/28 08:10:42;;;;;;;9.20;2.85;;;8.30;85.10;;;;;;4899217;29;20112;-82
2021/03/28 08:13:45;;;;;;;7.13;2.40;;;8.40;84.70;;;;;;4908191;29;20881;-82
2021/03/28 08:16:29;;;;;;;7.85;2.72;;;8.40;85.30;;;;;;4913766;29;20135;-88
2021/03/28 08:19:29;;;;;;;8.45;2.83;;;8.50;84.90;;;;;;4905568;29;20510;-90
2021/03/28 08:22:12;;;;;;;6.40;2.63;;;8.60;85.20;;;;;;4905906;29;20095;-90
2021/03/28 08:25:27;;;;;;;5.70;2.20;;;8.70;84.50;;;;;;4919272;29;20079;-87
2021/03/28 08:28:53;;;;;;;6.03;2.45;;;8.80;84.00;;;;;;4915517;29;20072;-88
2021/03/28 08:31:32;;;;;;;6.93;2.47;;;8.90;83.80;;;;;;4899231;29;20052;-87
2021/03/28 08:35:05;;;;;;;5.20;2.25;;;9.00;83.30;;;;;;4912425;29;20059;-87
2021/03/28 08:37:53;;;;;;;;;;;9.00;84.10;;;;;;4906972;29;20481;-85
2021/03/28 08:40:57;;;;;;;6.00;2.50;;;9.00;84.40;;;;;;4904822;29;20285;-88
2021/03/28 08:44:16;;;;;;;6.72;2.80;;;9.20;83.60;;;;;;4905880;29;20108;-86
2021/03/28 08:47:53;;;;;;;6.38;2.40;;;9.10;83.70;;;;;;4901312;29;20084;-82
2021/03/28 08:50:36;;;;;;;5.63;2.25;;;9.20;83.70;;;;;;4904439;29;20088;-82
2021/03/28 08:53:45;;;;;;;7.13;2.60;;;9.20;84.00;;;;;;4915903;29;20139;-79
2021/03/28 08:57:00;;;;;;;7.25;2.70;;;9.20;84.20;;;;;;4916714;29;20087;-88
2021/03/28 08:59:44;;;;;;;8.25;2.88;;;9.30;84.20;;;;;;4916891;29;20052;-83
2021/03/28 09:02:31;;;;;;;6.55;2.42;;;9.40;83.60;;;;;;4910246;29;20045;-82
2021/03/28 09:05:18;;;;;;;8.48;3.05;;;9.50;83.90;;;;;;4899683;29;20059;-83
2021/03/28 09:07:59;;;;;;;6.38;2.30;;;9.60;83.80;;;;;;4904336;29;20087;-81
2021/03/28 09:11:20;;;;;;;6.38;2.40;;;9.60;82.70;;;;;;4901949;29;20087;-82
2021/03/28 09:13:52;;;;;;;5.78;1.85;;;9.60;83.10;;;;;;4901209;29;20474;-78
2021/03/28 09:16:37;;;;;;;5.88;2.13;;;9.70;82.80;;;;;;4901318;29;20087;-78
2021/03/28 09:19:16;;;;;;;6.63;1.88;;;9.80;82.70;;;;;;4903135;29;20131;-77
2021/03/28 09:21:53;;;;;;;7.25;1.60;;;9.90;81.50;;;;;;4903689;29;20049;-78
2021/03/28 09:24:44;;;;;;;7.93;1.92;;;10.00;80.80;;;;;;4901521;29;20053;-86
2021/03/28 09:27:44;;;;;;;7.43;2.22;;;10.20;77.40;;;;;;4912721;29;20052;-84
2021/03/28 09:30:34;;;;;;;7.13;2.08;;;10.30;77.20;;;;;;4832720;29;20078;-84
2021/03/28 09:33:36;;;;;;;6.70;1.60;;;10.30;76.80;;;;;;4904421;29;20135;-86
2021/03/28 09:36:34;;;;;;;7.13;2.03;;;10.40;76.60;;;;;;4906000;29;20063;-86
2021/03/28 09:39:52;;;;;;;6.50;1.30;;;10.50;72.40;;;;;;4901807;29;20057;-86
2021/03/28 09:43:02;;;;;;;6.03;1.90;;;10.50;71.50;;;;;;4902521;29;20052;-86
2021/03/28 09:46:18;;;;;;;5.20;1.73;;;10.70;66.40;;;;;;4901196;29;20067;-86
2021/03/28 09:49:11;;;;;;;7.20;1.50;;;10.70;65.90;;;;;;4919222;29;20149;-85
2021/03/28 09:52:20;;;;;;;6.45;1.50;;;10.80;65.40;;;;;;4908447;29;20052;-89
2021/03/28 09:55:42;;;;;;;5.40;1.63;;;10.90;61.90;;;;;;4907039;29;20142;-87
2021/03/28 09:58:45;;;;;;;6.82;1.30;;;11.00;59.00;;;;;;4899984;29;20192;-85
2021/03/28 10:01:28;;;;;;;7.40;1.50;;;11.10;57.20;;;;;;4902460;29;20151;-88
2021/03/28 10:04:02;;;;;;;5.15;1.30;;;11.10;57.20;;;;;;4901866;29;20057;-88
2021/03/28 10:06:30;;;;;;;6.00;1.38;;;11.10;58.20;;;;;;4902311;29;20102;-87
2021/03/28 10:09:14;;;;;;;5.05;1.60;;;11.30;58.20;;;;;;4899849;29;20131;-78
2021/03/28 10:11:49;;;;;;;4.45;1.33;;;11.40;53.00;;;;;;4914440;29;20139;-81
2021/03/28 10:14:52;;;;;;;5.68;1.40;;;11.40;53.30;;;;;;4900405;29;20143;-80
2021/03/28 10:17:50;;;;;;;3.97;1.17;;;11.40;53.60;;;;;;4898863;29;20092;-78
2021/03/28 10:20:51;;;;;;;5.78;1.40;;;11.60;53.60;;;;;;4900924;29;20083;-82
2021/03/28 10:23:39;;;;;;;5.50;1.73;;;11.60;54.00;;;;;;4902364;29;20192;-79
2021/03/28 10:26:41;;;;;;;5.97;1.90;;;11.80;53.50;;;;;;4909389;29;20494;-81
2021/03/28 10:29:47;;;;;;;5.80;1.58;;;11.90;53.10;;;;;;4902536;29;20072;-81
2021/03/28 10:32:37;;;;;;;4.05;1.33;;;11.90;53.70;;;;;;4913892;29;20079;-81
2021/03/28 10:35:47;;;;;;;4.13;1.33;;;11.80;55.10;;;;;;4919109;29;20151;-80
2021/03/28 10:38:49;;;;;;;5.03;1.55;;;11.90;54.70;;;;;;4919012;29;20138;-79
2021/03/28 10:41:35;;;;;;;6.18;1.52;;;12.10;52.30;;;;;;4899894;29;20136;-83
2021/03/28 10:44:26;;;;;;;3.60;1.23;;;12.10;52.00;;;;;;4903145;29;20052;-81
2021/03/28 10:48:08;;;;;;;5.28;1.48;;;12.10;52.20;;;;;;4901735;29;20135;-83
2021/03/28 10:51:03;;;;;;;4.57;1.40;;;12.20;51.80;;;;;;4875526;29;20112;-76
2021/03/28 10:53:56;;;;;;;5.95;1.60;;;12.30;50.90;;;;;;4899866;29;20575;-77
2021/03/28 10:57:14;;;;;;;6.43;1.65;;;12.20;52.20;;;;;;4899622;29;20143;-78
2021/03/28 11:00:46;;;;;;;6.32;1.70;;;12.30;51.60;;;;;;4909356;29;20079;-87
2021/03/28 11:04:03;;;;;;;6.75;1.70;;;12.40;52.90;;;;;;4902480;29;20494;-81
2021/03/28 11:06:53;;;;;;;6.22;1.80;;;12.60;52.30;;;;;;4899687;29;20322;-81
2021/03/28 11:09:50;;;;;;;6.22;1.48;;;12.60;51.80;;;;;;4909365;29;20048;-80
2021/03/28 11:12:39;;;;;;;5.43;1.60;;;12.50;52.70;;;;;;4918248;29;20513;-80
2021/03/28 11:15:43;;;;;;;5.13;1.52;;;12.60;52.40;;;;;;4918425;29;20076;-78
2021/03/28 11:18:55;;;;;;;6.03;1.70;;;12.70;51.40;;;;;;4916582;29;20483;-80
2021/03/28 11:21:30;;;;;;;5.20;1.38;;;12.80;52.30;;;;;;4918257;29;20098;-81
2021/03/28 11:24:36;;;;;;;3.97;1.50;;;12.70;52.30;;;;;;4917750;29;20143;-79
2021/03/28 11:28:14;;;;;;;5.05;1.80;;;12.80;52.50;;;;;;4917714;29;20088;-79
2021/03/28 11:30:44;;;;;;;6.72;2.17;;;12.80;51.70;;;;;;4855867;29;20103;-79
2021/03/28 11:33:27;;;;;;;4.30;1.55;;;13.00;51.80;;;;;;4877695;29;20064;-79
2021/03/28 11:36:21;;;;;;;4.57;1.45;;;13.10;51.30;;;;;;4892270;29;20140;-79
2021/03/28 11:39:20;;;;;;;5.43;1.42;;;13.10;51.60;;;;;;4886097;29;20079;-79
2021/03/28 11:41:56;;;;;;;5.32;1.60;;;13.20;50.70;;;;;;4898896;29;20510;-80
2021/03/28 11:44:28;;;;;;;6.90;1.60;;;13.40;50.40;;;;;;4898620;29;20579;-79
2021/03/28 11:47:16;;;;;;;5.78;1.50;;;13.40;50.50;;;;;;4898404;29;20147;-79
2021/03/28 11:50:30;;;;;;;6.00;1.50;;;13.50;51.00;;;;;;4910136;29;20554;-80
2021/03/28 11:53:04;;;;;;;5.53;1.80;;;13.50;51.60;;;;;;4897494;29;20099;-82
2021/03/28 11:55:53;;;;;;;7.53;1.63;;;13.60;51.50;;;;;;4899792;29;20079;-82
2021/03/28 11:58:57;;;;;;;6.68;1.92;;;13.60;51.60;;;;;;4896502;29;20487;-79
2021/03/28 12:02:18;;;;;;;6.38;1.83;;;13.60;50.90;;;;;;4910628;29;20060;-82
2021/03/28 12:04:47;;;;;;;5.20;1.70;;;13.70;50.20;;;;;;4905465;29;20080;-84
2021/03/28 12:07:27;;;;;;;6.03;1.67;;;13.80;49.80;;;;;;4909283;29;20059;-85
2021/03/28 12:10:29;;;;;;;6.00;1.60;;;13.90;49.40;;;;;;4899710;29;20131;-87
2021/03/28 12:13:29;;;;;;;6.28;2.13;;;13.80;51.00;;;;;;4898956;29;20084;-84
2021/03/28 12:16:06;;;;;;;5.10;1.80;;;14.00;48.70;;;;;;4903253;29;20076;-80
2021/03/28 12:18:50;;;;;;;11.18;3.40;;;14.10;50.90;;;;;;4917507;29;20095;-79
2021/03/28 12:21:54;;;;;;;6.38;1.83;;;14.20;51.10;;;;;;4901754;29;20053;-81
2021/03/28 12:24:28;;;;;;;5.00;1.48;;;14.40;50.10;;;;;;4857295;29;20049;-81
2021/03/28 12:27:03;;;;;;;5.05;2.00;;;14.60;49.30;;;;;;4885919;29;20504;-81
2021/03/28 12:29:41;;;;;;;7.50;1.50;;;14.80;48.00;;;;;;4895507;29;20079;-85
2021/03/28 12:33:05;;;;;;;7.45;1.90;;;14.80;48.00;;;;;;4910628;29;20060;-86
2021/03/28 12:36:03;;;;;;;5.53;1.80;;;15.00;47.10;;;;;;4901092;29;20060;-81
2021/03/28 12:38:50;;;;;;;5.40;1.70;;;15.20;46.90;;;;;;4905078;29;20091;-86
2021/03/28 12:41:29;;;;;;;5.57;1.52;;;15.20;47.00;;;;;;4917233;29;20086;-83
2021/03/28 12:44:17;;;;;;;7.97;1.85;;;15.20;47.50;;;;;;4917855;29;20083;-82
2021/03/28 12:46:57;;;;;;;5.47;1.58;;;15.30;46.80;;;;;;4903675;29;20084;-81
2021/03/28 12:49:31;;;;;;;6.75;1.77;;;15.40;46.30;;;;;;4905839;29;20047;-82
2021/03/28 12:52:27;;;;;;;6.30;1.55;;;15.60;45.60;;;;;;4916445;29;20048;-83
2021/03/28 12:55:12;;;;;;;4.70;1.33;;;15.70;44.90;;;;;;4917588;29;20549;-83
2021/03/28 12:57:44;;;;;;;6.80;1.75;;;15.80;44.20;;;;;;4898625;29;20139;-82
2021/03/28 13:00:33;;;;;;;7.88;2.17;;;16.00;45.10;;;;;;4904362;29;20143;-81
2021/03/28 13:03:11;;;;;;;5.32;1.50;;;16.10;44.90;;;;;;4907731;29;20428;-81
2021/03/28 13:06:01;;;;;;;4.85;1.75;;;16.40;42.80;;;;;;4901661;29;20088;-78
2021/03/28 13:08:33;;;;;;;7.35;1.60;;;16.50;41.50;;;;;;4903283;29;20063;-80
2021/03/28 13:11:03;;;;;;;5.97;1.90;;;16.50;42.40;;;;;;4907809;29;20076;-80
2021/03/28 13:13:39;;;;;;;5.72;1.92;;;16.70;41.90;;;;;;4908910;29;20084;-81
2021/03/28 13:16:22;;;;;;;3.97;1.40;;;16.70;42.50;;;;;;4904270;29;20230;-82
2021/03/28 13:18:49;;;;;;;5.53;1.35;;;17.00;40.80;;;;;;4902635;29;20084;-82
2021/03/28 13:21:21;;;;;;;7.50;1.50;;;17.00;40.90;;;;;;4910931;29;20124;-82
2021/03/28 13:24:03;;;;;;;4.60;1.50;;;17.10;40.40;;;;;;4900978;29;20467;-86
2021/03/28 13:26:31;;;;;;;4.78;1.40;;;17.20;40.70;;;;;;4904844;29;20048;-84
2021/03/28 13:29:06;;;;;;;6.30;1.40;;;17.20;40.10;;;;;;4907623;29;20071;-80
2021/03/28 13:31:41;;;;;;;4.15;1.40;;;17.20;40.20;;;;;;4906979;29;20675;-83
2021/03/28 13:34:33;;;;;;;4.95;1.10;;;17.30;38.90;;;;;;4905572;29;20085;-84
2021/03/28 13:37:15;;;;;;;5.28;1.60;;;17.40;38.50;;;;;;4915447;29;20082;-85
2021/03/28 13:39:59;;;;;;;4.93;1.38;;;17.60;39.30;;;;;;4908800;29;20052;-84
2021/03/28 13:42:30;;;;;;;;;;;17.70;40.10;;;;;;4911553;29;20074;-85
2021/03/28 13:45:02;;;;;;;5.30;1.42;;;17.80;38.20;;;;;;4912660;29;19930;-86
2021/03/28 13:47:46;;;;;;;6.00;1.50;;;17.80;40.10;;;;;;4903689;29;20092;-85
2021/03/28 13:50:45;;;;;;;3.80;1.20;;;17.90;40.20;;;;;;4916597;29;20491;-85
2021/03/28 13:53:42;;;;;;;4.55;1.25;;;18.00;39.00;;;;;;4910639;29;20517;-86
2021/03/28 13:56:46;;;;;;;5.65;1.70;;;18.30;37.60;;;;;;4909646;29;20138;-89
2021/03/28 13:59:22;;;;;;;4.53;1.38;;;18.60;37.60;;;;;;4918737;29;20055;-88
2021/03/28 14:02:13;;;;;;;6.20;2.30;;;18.90;35.60;;;;;;4921380;29;20087;-88
2021/03/28 14:04:42;;;;;;;4.07;1.50;;;19.10;34.70;;;;;;4908628;29;20539;-88
2021/03/28 14:07:27;;;;;;;4.07;1.42;;;19.20;36.00;;;;;;4906566;29;20082;-88
2021/03/28 14:10:25;;;;;;;3.58;1.27;;;19.50;35.90;;;;;;4902023;29;20049;-89
2021/03/28 14:13:04;;;;;;;3.95;1.35;;;19.90;35.80;;;;;;4918781;29;20442;-87
2021/03/28 14:15:41;;;;;;;4.35;1.30;;;20.20;34.20;;;;;;4906921;29;20056;-84
2021/03/28 14:18:29;;;;;;;4.25;1.50;;;20.50;33.50;;;;;;4907438;29;20127;-85
2021/03/28 14:21:22;;;;;;;6.20;2.00;;;20.80;32.00;;;;;;4906427;29;20148;-85
2021/03/28 14:24:01;;;;;;;9.48;4.82;;;20.90;33.20;;;;;;4902573;29;20049;-85
2021/03/28 14:26:39;;;;;;;3.65;1.30;;;21.10;32.70;;;;;;4905731;29;20144;-85
2021/03/28 14:29:29;;;;;;;3.72;1.23;;;21.70;31.40;;;;;;4905273;29;20407;-83
2021/03/28 14:32:05;;;;;;;4.90;1.42;;;22.10;31.00;;;;;;4902156;29;20052;-86
2021/03/28 14:35:23;;;;;;;4.60;1.30;;;22.50;29.50;;;;;;4907367;29;20076;-84
2021/03/28 14:38:34;;;;;;;3.63;1.40;;;22.70;29.60;;;;;;4901229;29;20151;-85
2021/03/28 14:41:25;;;;;;;3.20;1.27;;;23.00;29.30;;;;;;4903434;29;20044;-83
2021/03/28 14:44:58;;;;;;;3.72;1.15;;;23.90;29.60;;;;;;4903251;29;20560;-83
2021/03/28 14:47:45;;;;;;;4.55;1.50;;;26.00;29.90;;;;;;4910474;29;20487;-84
2021/03/28 14:50:21;;;;;;;4.97;1.50;;;28.90;27.90;;;;;;4894474;29;20060;-82
2021/03/28 14:52:56;;;;;;;3.60;1.20;;;30.50;25.80;;;;;;4895633;29;20135;-82
2021/03/28 14:55:36;;;;;;;3.08;1.17;;;31.80;25.10;;;;;;4897011;29;20135;-82
2021/03/28 14:58:21;;;;;;;3.75;1.13;;;32.70;24.30;;;;;;4896041;29;20056;-81
2021/03/28 15:00:56;;;;;;;5.75;1.92;;;32.60;24.50;;;;;;4894914;29;20143;-82
2021/03/28 15:03:57;;;;;;;3.75;1.35;;;32.60;24.10;;;;;;4896354;29;20430;-82
2021/03/28 15:06:43;;;;;;;4.07;1.50;;;31.60;22.90;;;;;;4906796;29;20090;-83
2021/03/28 15:09:17;;;;;;;4.35;1.45;;;31.40;23.60;;;;;;4919750;29;20086;-82
2021/03/28 15:11:47;;;;;;;3.50;1.27;;;31.10;24.00;;;;;;4915629;29;20052;-85
2021/03/28 15:14:26;;;;;;;3.60;1.20;;;31.00;24.50;;;;;;4907461;29;20076;-84
2021/03/28 15:17:02;;;;;;;2.90;1.17;;;31.10;24.20;;;;;;4896490;29;20075;-84